createdAt,value
2022-12-23T00:01:05.983Z,7.03
2022-12-23T00:03:34.726Z,6.87
2022-12-23T00:06:09.462Z,6.53
2022-12-23T00:08:37.401Z,7.23
2022-12-23T00:11:05.989Z,8.03
2022-12-23T00:13:51.949Z,7.83
2022-12-23T00:16:19.595Z,7.60
2022-12-23T00:18:47.228Z,7.77
2022-12-23T00:21:18.286Z,7.40
2022-12-23T00:23:48.293Z,7.87
2022-12-23T00:26:17.514Z,7.43
2022-12-23T00:28:45.651Z,8.07
2022-12-23T00:31:13.964Z,7.33
2022-12-23T00:33:43.466Z,7.37
2022-12-23T00:36:19.034Z,7.77
2022-12-23T00:39:05.146Z,6.57
2022-12-23T00:41:50.553Z,6.43
2022-12-23T00:44:18.155Z,6.20
2022-12-23T00:46:45.802Z,6.83
2022-12-23T00:49:32.426Z,6.23
2022-12-23T00:52:02.024Z,7.00
2022-12-23T00:54:29.781Z,7.20
2022-12-23T00:56:57.323Z,6.60
2022-12-23T00:59:24.857Z,6.57
2022-12-23T01:02:09.854Z,7.33
2022-12-23T01:04:55.207Z,7.30
2022-12-23T01:07:24.831Z,7.70
2022-12-23T01:09:52.401Z,6.97
2022-12-23T01:12:20.131Z,7.27
2022-12-23T01:14:47.763Z,7.77
2022-12-23T01:17:15.925Z,7.73
2022-12-23T01:19:43.577Z,7.53
2022-12-23T01:22:11.144Z,7.13
2022-12-23T01:24:40.093Z,7.30
2022-12-23T01:27:07.676Z,8.13
2022-12-23T01:29:35.248Z,6.93
2022-12-23T01:32:02.903Z,6.93
2022-12-23T01:34:36.459Z,8.13
2022-12-23T01:37:05.110Z,6.80
2022-12-23T01:39:32.666Z,7.17
2022-12-23T01:42:19.753Z,7.80
2022-12-23T01:44:50.736Z,7.97
2022-12-23T01:47:23.541Z,6.97
2022-12-23T01:49:54.151Z,8.17
2022-12-23T01:52:22.519Z,7.20
2022-12-23T01:54:50.313Z,7.07
2022-12-23T01:57:19.278Z,6.30
2022-12-23T02:00:06.757Z,6.10
2022-12-23T02:02:55.555Z,7.83
2022-12-23T02:05:24.858Z,6.67
2022-12-23T02:08:12.178Z,6.57
2022-12-23T02:10:55.289Z,6.93
2022-12-23T02:13:32.293Z,6.97
2022-12-23T02:16:19.244Z,7.13
2022-12-23T02:19:03.057Z,7.73
2022-12-23T02:21:54.033Z,6.57
2022-12-23T02:25:01.680Z,7.17
2022-12-23T02:27:32.790Z,7.20
2022-12-23T02:30:28.150Z,7.53
2022-12-23T02:33:14.087Z,8.10
2022-12-23T02:35:47.280Z,8.43
2022-12-23T02:38:24.437Z,7.87
2022-12-23T02:40:59.907Z,8.67
2022-12-23T02:43:35.423Z,8.03
2022-12-23T02:46:10.817Z,8.57
2022-12-23T02:48:46.074Z,8.23
2022-12-23T02:51:15.958Z,8.50
2022-12-23T02:53:48.734Z,7.70
2022-12-23T02:56:18.657Z,7.80
2022-12-23T02:58:51.215Z,7.40
2022-12-23T03:01:21.626Z,8.53
2022-12-23T03:03:51.495Z,7.53
2022-12-23T03:06:23.830Z,7.20
2022-12-23T03:08:55.673Z,7.43
2022-12-23T03:11:40.073Z,8.43
2022-12-23T03:14:23.929Z,8.00
2022-12-23T03:17:01.382Z,8.80
2022-12-23T03:19:36.076Z,8.83
2022-12-23T03:22:11.169Z,9.00
2022-12-23T03:24:45.662Z,8.17
2022-12-23T03:27:20.006Z,8.77
2022-12-23T03:29:55.446Z,7.57
2022-12-23T03:32:27.183Z,7.50
2022-12-23T03:34:58.724Z,8.67
2022-12-23T03:37:28.826Z,7.17
2022-12-23T03:40:02.679Z,7.67
2022-12-23T03:42:35.556Z,7.83
2022-12-23T03:45:39.279Z,6.93
2022-12-23T03:48:03.957Z,7.47
2022-12-23T03:50:33.063Z,8.13
2022-12-23T03:53:06.543Z,7.30
2022-12-23T03:55:37.579Z,7.57
2022-12-23T03:58:11.287Z,8.07
2022-12-23T04:00:44.808Z,6.70
2022-12-23T04:03:20.339Z,5.77
2022-12-23T04:05:53.713Z,6.03
2022-12-23T04:08:27.243Z,6.47
2022-12-23T04:10:55.216Z,7.03
2022-12-23T04:13:22.751Z,6.37
2022-12-23T04:15:50.615Z,7.93
2022-12-23T04:18:19.672Z,6.93
2022-12-23T04:20:47.269Z,6.40
2022-12-23T04:23:14.868Z,7.27
2022-12-23T04:25:42.525Z,7.10
2022-12-23T04:28:10.157Z,6.33
2022-12-23T04:30:37.788Z,6.77
2022-12-23T04:33:05.353Z,6.73
2022-12-23T04:35:34.196Z,7.47
2022-12-23T04:38:01.758Z,6.93
2022-12-23T04:40:29.279Z,6.07
2022-12-23T04:42:56.798Z,7.03
2022-12-23T04:45:24.259Z,7.47
2022-12-23T04:47:51.769Z,6.87
2022-12-23T04:50:19.371Z,6.17
2022-12-23T04:52:48.221Z,7.30
2022-12-23T04:55:15.784Z,6.57
2022-12-23T04:57:43.350Z,7.40
2022-12-23T05:00:12.033Z,6.70
2022-12-23T05:02:39.663Z,6.97
2022-12-23T05:05:07.758Z,6.97
2022-12-23T05:07:35.283Z,6.70
2022-12-23T05:10:04.405Z,7.13
2022-12-23T05:12:32.594Z,6.80
2022-12-23T05:15:00.189Z,6.23
2022-12-23T05:17:27.806Z,7.77
2022-12-23T05:19:55.264Z,6.93
2022-12-23T05:22:22.798Z,6.00
2022-12-23T05:24:50.396Z,5.30
2022-12-23T05:27:19.584Z,5.00
2022-12-23T05:29:47.184Z,5.77
2022-12-23T05:32:14.695Z,6.87
2022-12-23T05:34:42.286Z,5.97
2022-12-23T05:37:10.007Z,6.40
2022-12-23T05:39:37.592Z,5.00
2022-12-23T05:42:05.543Z,5.73
2022-12-23T05:44:34.634Z,5.80
2022-12-23T05:47:02.606Z,6.00
2022-12-23T05:49:30.195Z,6.20
2022-12-23T05:51:57.713Z,5.67
2022-12-23T05:54:25.391Z,5.10
2022-12-23T05:56:52.962Z,6.37
2022-12-23T05:59:20.567Z,6.37
2022-12-23T06:01:57.323Z,7.03
2022-12-23T06:04:31.131Z,6.20
2022-12-23T06:07:10.593Z,7.13
2022-12-23T06:09:48.044Z,6.47
2022-12-23T06:12:16.831Z,6.07
2022-12-23T06:14:57.168Z,5.67
2022-12-23T06:17:34.266Z,6.13
2022-12-23T06:20:08.257Z,4.87
2022-12-23T06:22:50.568Z,7.13
2022-12-23T06:25:23.627Z,5.93
2022-12-23T06:28:09.580Z,5.97
2022-12-23T06:30:45.154Z,7.53
2022-12-23T06:33:30.391Z,7.23
2022-12-23T06:36:03.536Z,6.73
2022-12-23T06:38:33.659Z,8.13
2022-12-23T06:41:11.396Z,7.57
2022-12-23T06:43:41.469Z,8.00
2022-12-23T06:46:18.191Z,7.70
2022-12-23T06:48:52.428Z,7.60
2022-12-23T06:51:22.587Z,7.80
2022-12-23T06:53:52.976Z,8.47
2022-12-23T06:56:34.219Z,8.57
2022-12-23T07:00:03.844Z,8.77
2022-12-23T07:02:33.767Z,7.23
2022-12-23T07:05:02.845Z,6.80
2022-12-23T07:07:32.180Z,8.17
2022-12-23T07:09:59.997Z,7.97
2022-12-23T07:12:32.187Z,8.03
2022-12-23T07:14:59.957Z,8.10
2022-12-23T07:17:30.020Z,9.90
2022-12-23T07:19:57.591Z,8.43
2022-12-23T07:22:26.495Z,9.20
2022-12-23T07:24:54.967Z,8.13
2022-12-23T07:27:24.899Z,8.07
2022-12-23T07:29:52.938Z,8.53
2022-12-23T07:32:24.974Z,9.17
2022-12-23T07:34:52.810Z,9.57
2022-12-23T07:37:20.662Z,8.67
2022-12-23T07:39:50.263Z,9.40
2022-12-23T07:42:44.336Z,9.63
2022-12-23T07:45:11.596Z,8.77
2022-12-23T07:47:39.280Z,8.57
2022-12-23T07:50:15.415Z,8.83
2022-12-23T07:52:53.268Z,8.13
2022-12-23T07:55:23.252Z,8.43
2022-12-23T07:57:52.911Z,8.87
2022-12-23T08:00:22.797Z,8.53
2022-12-23T08:02:51.730Z,8.93
2022-12-23T08:05:20.129Z,8.10
2022-12-23T08:07:51.024Z,8.13
2022-12-23T08:10:19.334Z,8.87
2022-12-23T08:12:49.119Z,7.73
2022-12-23T08:15:17.457Z,8.20
2022-12-23T08:17:46.672Z,8.03
2022-12-23T08:20:29.038Z,7.57
2022-12-23T08:22:57.110Z,7.33
2022-12-23T08:25:29.779Z,7.37
2022-12-23T08:27:58.963Z,8.03
2022-12-23T08:30:27.011Z,7.60
2022-12-23T08:32:54.846Z,7.23
2022-12-23T08:35:22.400Z,7.37
2022-12-23T08:37:50.478Z,6.83
2022-12-23T08:40:23.256Z,6.30
2022-12-23T08:46:14.510Z,6.13
2022-12-23T08:48:48.646Z,7.90
2022-12-23T08:51:20.119Z,7.60
2022-12-23T08:53:49.167Z,6.90
2022-12-23T08:56:29.122Z,7.20
2022-12-23T08:59:03.146Z,7.13
2022-12-23T09:01:36.587Z,6.43
2022-12-23T09:04:07.782Z,7.73
2022-12-23T09:06:39.290Z,7.13
2022-12-23T09:09:27.526Z,7.53
2022-12-23T09:12:11.759Z,7.37
2022-12-23T09:14:42.260Z,7.30
2022-12-23T09:17:10.002Z,6.97
2022-12-23T09:19:40.036Z,7.73
2022-12-23T09:22:16.642Z,6.50
2022-12-23T09:24:44.226Z,6.77
2022-12-23T09:27:12.539Z,7.00
2022-12-23T09:29:41.877Z,6.50
2022-12-23T09:32:10.032Z,7.50
2022-12-23T09:34:38.477Z,6.57
2022-12-23T09:37:06.066Z,6.63
2022-12-23T09:39:37.515Z,5.63
2022-12-23T09:42:28.879Z,6.97
2022-12-23T09:45:26.672Z,7.20
2022-12-23T09:48:08.247Z,6.53
2022-12-23T09:50:36.294Z,6.00
2022-12-23T09:53:07.469Z,7.07
2022-12-23T09:55:47.287Z,6.33
2022-12-23T09:58:30.359Z,6.53
2022-12-23T10:01:11.738Z,7.37
2022-12-23T10:04:01.249Z,7.07
2022-12-23T10:06:56.320Z,7.53
2022-12-23T10:09:37.689Z,6.97
2022-12-23T10:12:22.215Z,7.80
2022-12-23T10:14:58.843Z,6.70
2022-12-23T10:17:38.816Z,6.20
2022-12-23T10:20:15.271Z,6.77
2022-12-23T10:22:48.845Z,6.37
2022-12-23T10:25:27.148Z,6.43
2022-12-23T10:27:59.152Z,5.93
2022-12-23T10:30:53.884Z,6.63
2022-12-23T10:33:27.890Z,6.80
2022-12-23T10:36:08.700Z,7.17
2022-12-23T10:38:55.233Z,6.43
2022-12-23T10:41:48.012Z,7.47
2022-12-23T10:45:11.037Z,7.50
2022-12-23T10:47:54.381Z,8.17
2022-12-23T10:51:00.815Z,7.70
2022-12-23T10:53:36.722Z,9.13
2022-12-23T11:05:39.198Z,8.43
2022-12-23T11:08:16.095Z,8.00
2022-12-23T11:10:49.992Z,8.67
2022-12-23T11:13:36.834Z,8.17
2022-12-23T11:16:20.900Z,10.57
2022-12-23T11:22:14.474Z,8.57
2022-12-23T11:25:46.939Z,7.90
2022-12-23T11:28:23.547Z,9.63
2022-12-23T11:34:01.388Z,8.53
2022-12-23T11:36:44.042Z,9.53
2022-12-23T11:39:37.761Z,9.27
2022-12-23T11:45:40.228Z,8.07
2022-12-23T11:48:38.495Z,7.97
2022-12-23T11:51:29.734Z,6.50
2022-12-23T11:54:05.947Z,7.03
2022-12-23T11:56:37.832Z,6.33
2022-12-23T11:59:30.288Z,6.53
2022-12-23T12:02:08.758Z,6.27
2022-12-23T12:04:44.864Z,6.03
2022-12-23T12:07:59.525Z,5.93
2022-12-23T12:11:48.740Z,5.53
2022-12-23T13:19:40.129Z,8.97
2022-12-23T13:31:44.043Z,6.57
2022-12-23T13:34:57.695Z,7.13
2022-12-23T14:48:07.634Z,5.03
2022-12-23T14:50:59.262Z,5.40
2022-12-23T14:54:05.079Z,5.57
2022-12-23T15:00:35.692Z,5.67
2022-12-23T15:10:50.468Z,5.90
2022-12-23T15:13:23.352Z,5.07
2022-12-23T15:16:01.269Z,6.33
2022-12-23T15:18:54.799Z,6.57
2022-12-23T15:21:32.299Z,6.07
2022-12-23T15:24:00.751Z,5.30
2022-12-23T15:26:31.426Z,5.53
2022-12-23T15:29:01.188Z,4.93
2022-12-23T15:31:32.052Z,5.17
2022-12-23T15:34:11.707Z,4.70
2022-12-23T15:36:45.319Z,4.77
2022-12-23T15:39:20.905Z,4.70
2022-12-23T15:41:49.238Z,4.63
2022-12-23T15:44:22.196Z,5.13
2022-12-23T15:46:50.664Z,4.93
2022-12-23T15:49:20.585Z,4.97
2022-12-23T15:52:07.810Z,5.70
2022-12-23T15:54:44.933Z,4.73
2022-12-23T15:57:17.346Z,6.13
2022-12-23T15:59:44.962Z,5.67
2022-12-23T16:05:09.953Z,5.23
2022-12-23T16:07:40.195Z,4.57
2022-12-23T16:10:15.322Z,5.20
2022-12-23T16:12:44.332Z,5.67
2022-12-23T16:15:22.778Z,6.07
2022-12-23T16:17:50.290Z,5.80
2022-12-23T16:20:24.863Z,6.57
2022-12-23T16:22:55.092Z,5.57
2022-12-23T16:25:24.987Z,5.93
2022-12-23T16:27:57.358Z,5.67
2022-12-23T16:30:30.273Z,6.40
2022-12-23T16:32:59.691Z,6.50
2022-12-23T16:35:35.712Z,6.37
2022-12-23T16:38:13.817Z,4.97
2022-12-23T16:40:42.573Z,5.90
2022-12-23T16:43:10.415Z,6.40
2022-12-23T16:45:38.424Z,6.97
2022-12-23T16:48:12.134Z,6.20
2022-12-23T16:50:40.968Z,7.00
2022-12-23T16:53:12.726Z,7.33
2022-12-23T16:55:46.203Z,6.27
2022-12-23T16:58:17.925Z,6.67
2022-12-23T17:00:45.835Z,6.63
2022-12-23T17:03:17.252Z,5.93
2022-12-23T17:05:46.910Z,5.20
2022-12-23T17:08:14.726Z,8.77
2022-12-23T17:10:44.483Z,9.30
2022-12-23T17:13:13.640Z,8.73
2022-12-23T17:15:41.110Z,6.77
2022-12-23T17:18:13.613Z,7.37
2022-12-23T17:20:42.044Z,8.10
2022-12-23T17:23:24.120Z,9.10
2022-12-23T17:25:52.163Z,8.00
2022-12-23T17:28:20.682Z,8.50
2022-12-23T17:30:56.051Z,7.83
2022-12-23T17:33:27.675Z,8.73
2022-12-23T17:35:55.911Z,8.03
2022-12-23T17:38:24.965Z,8.00
2022-12-23T17:40:52.695Z,7.67
2022-12-23T17:43:20.237Z,8.20
2022-12-23T17:45:48.154Z,8.77
2022-12-23T17:48:23.137Z,7.97
2022-12-23T17:50:52.946Z,7.90
2022-12-23T17:53:21.180Z,8.30
2022-12-23T17:55:49.966Z,8.13
2022-12-23T17:58:17.470Z,8.40
2022-12-23T18:00:45.211Z,8.47
2022-12-23T18:03:23.021Z,7.70
2022-12-23T18:05:57.255Z,7.90
2022-12-23T18:08:28.692Z,8.10
2022-12-23T18:10:59.033Z,8.43
2022-12-23T18:13:26.613Z,7.30
2022-12-23T18:15:54.158Z,7.00
2022-12-23T18:18:32.064Z,7.53
2022-12-23T18:21:06.463Z,7.27
2022-12-23T18:23:37.183Z,7.77
2022-12-23T18:26:06.301Z,7.57
2022-12-23T18:28:34.138Z,7.43
2022-12-23T18:31:01.901Z,7.27
2022-12-23T18:33:30.376Z,7.57
2022-12-23T18:35:58.396Z,7.87
2022-12-23T18:38:26.031Z,8.00
2022-12-23T18:40:54.870Z,7.43
2022-12-23T18:43:25.580Z,7.87
2022-12-23T18:45:54.269Z,7.67
2022-12-23T18:48:22.727Z,7.17
2022-12-23T18:50:50.291Z,7.37
2022-12-23T18:53:24.710Z,8.07
2022-12-23T18:55:53.620Z,7.87
2022-12-23T18:58:21.481Z,7.73
2022-12-23T19:00:52.669Z,9.10
2022-12-23T19:03:24.040Z,7.70
2022-12-23T19:05:52.812Z,8.60
2022-12-23T19:08:26.780Z,8.80
2022-12-23T19:10:56.085Z,8.90
2022-12-23T19:13:23.910Z,8.13
2022-12-23T19:15:53.142Z,8.53
2022-12-23T19:18:22.621Z,8.90
2022-12-23T19:20:50.512Z,9.03
2022-12-23T19:23:18.101Z,8.33
2022-12-23T19:25:54.539Z,8.93
2022-12-23T19:28:24.760Z,9.20
2022-12-23T19:30:53.891Z,9.33
2022-12-23T19:33:21.573Z,9.47
2022-12-23T19:35:49.167Z,9.13
2022-12-23T19:38:16.997Z,10.60
2022-12-23T19:40:45.033Z,8.33
2022-12-23T19:43:12.616Z,9.20
2022-12-23T19:45:40.226Z,9.53
2022-12-23T19:48:09.267Z,10.37
2022-12-23T19:50:36.932Z,9.73
2022-12-23T19:53:04.620Z,8.80
2022-12-23T19:55:32.294Z,10.80
2022-12-23T19:57:59.884Z,9.83
2022-12-23T20:00:27.638Z,10.53
2022-12-23T20:02:58.901Z,10.37
2022-12-23T20:05:28.203Z,9.60
2022-12-23T20:07:55.739Z,9.13
2022-12-23T20:10:23.375Z,10.43
2022-12-23T20:12:51.053Z,9.77
2022-12-23T20:15:18.622Z,9.97
2022-12-23T20:17:46.255Z,10.10
2022-12-23T20:20:14.113Z,8.80
2022-12-23T20:22:42.965Z,10.27
2022-12-23T20:25:10.918Z,9.80
2022-12-23T20:27:38.951Z,10.10
2022-12-23T20:30:07.847Z,9.83
2022-12-23T20:32:35.409Z,10.73
2022-12-23T20:35:02.999Z,10.13
2022-12-23T20:37:30.491Z,10.20
2022-12-23T20:39:59.452Z,8.10
2022-12-23T20:42:28.004Z,9.47
2022-12-23T20:44:55.570Z,7.73
2022-12-23T20:47:23.089Z,7.13
2022-12-23T20:49:50.642Z,7.57
2022-12-23T20:52:18.213Z,6.40
2022-12-23T20:54:47.224Z,6.40
2022-12-23T20:57:16.198Z,6.57
2022-12-23T20:59:43.895Z,6.17
2022-12-23T21:02:13.637Z,5.90
2022-12-23T21:04:41.390Z,6.20
2022-12-23T21:07:09.120Z,6.03
2022-12-23T21:09:36.926Z,6.87
2022-12-23T21:12:04.783Z,7.10
2022-12-23T21:14:33.847Z,6.20
2022-12-23T21:17:01.695Z,6.87
2022-12-23T21:19:29.414Z,6.30
2022-12-23T21:21:57.940Z,5.80
2022-12-23T21:24:25.688Z,7.00
2022-12-23T21:26:56.861Z,6.60
2022-12-23T21:29:26.076Z,6.73
2022-12-23T21:31:55.946Z,5.80
2022-12-23T21:34:23.665Z,6.17
2022-12-23T21:36:51.341Z,6.37
2022-12-23T21:39:19.833Z,7.00
2022-12-23T21:41:49.155Z,5.40
2022-12-23T21:44:16.700Z,6.17
2022-12-23T21:46:44.554Z,7.17
2022-12-23T21:49:13.614Z,7.30
2022-12-23T21:51:42.062Z,6.57
2022-12-23T21:54:10.427Z,6.43
2022-12-23T21:56:38.935Z,6.47
2022-12-23T21:59:08.252Z,5.97
2022-12-23T22:01:35.748Z,5.93
2022-12-23T22:04:03.273Z,6.40
2022-12-23T22:06:36.524Z,6.33
2022-12-23T22:09:05.280Z,6.10
2022-12-23T22:11:35.384Z,6.57
2022-12-23T22:14:04.895Z,5.83
2022-12-23T22:16:33.403Z,5.80
2022-12-23T22:19:02.584Z,6.27
2022-12-23T22:21:32.939Z,6.57
2022-12-23T22:24:00.535Z,12.70
2022-12-23T22:26:31.847Z,7.33
2022-12-23T22:29:01.133Z,6.10
2022-12-23T22:31:33.696Z,6.80
2022-12-23T22:34:01.415Z,5.63
2022-12-23T22:36:29.099Z,6.00
2022-12-23T22:38:59.836Z,5.57
2022-12-23T22:41:28.852Z,6.93
2022-12-23T22:43:57.142Z,6.17
2022-12-23T22:46:27.912Z,6.17
2022-12-23T22:48:56.578Z,5.87
2022-12-23T22:51:26.426Z,5.73
2022-12-23T22:53:54.333Z,5.47
2022-12-23T22:56:24.850Z,5.93
2022-12-23T22:58:53.736Z,6.13
2022-12-23T23:01:26.085Z,6.20
2022-12-23T23:03:57.325Z,5.73
2022-12-23T23:06:26.645Z,5.40
2022-12-23T23:08:55.173Z,5.83
2022-12-23T23:11:24.735Z,5.83
2022-12-23T23:13:52.733Z,6.10
2022-12-23T23:16:20.418Z,5.73
2022-12-23T23:18:47.946Z,6.63
2022-12-23T23:21:16.028Z,6.30
2022-12-23T23:23:43.556Z,5.53
2022-12-23T23:26:11.656Z,5.37
2022-12-23T23:28:41.104Z,4.37
2022-12-23T23:31:40.407Z,5.53
2022-12-23T23:33:58.125Z,5.33
2022-12-23T23:36:25.695Z,4.87
2022-12-23T23:38:53.442Z,5.00
2022-12-23T23:41:23.809Z,4.10
2022-12-23T23:43:53.167Z,4.73
2022-12-23T23:46:21.076Z,5.77
2022-12-23T23:48:48.977Z,4.73
2022-12-23T23:51:19.092Z,5.00
2022-12-23T23:53:46.641Z,4.43
2022-12-23T23:56:14.187Z,4.73
2022-12-23T23:58:41.722Z,4.50
